Time;durP1;ratioP1;P1;durP2;ratioP2;P2;SDS_P1;SDS_P2;PMS_P1;PMS_P2;Temp;Humidity;BMP_temperature;BMP_pressure;BME280_temperature;BME280_humidity;BME280_pressure;Samples;Min_cycle;Max_cycle;Signal;HPM_P1;HPM_P2
2022/09/13 00:00:16;;;;;;;9.68;4.28;;;;;;;16.67;100.00;101037.63;5286159;28;20084;-73
2022/09/13 00:02:47;;;;;;;8.50;4.32;;;;;;;16.64;100.00;101035.31;5285739;28;20536;-73
2022/09/13 00:05:17;;;;;;;7.63;4.22;;;;;;;16.61;100.00;101033.00;5285039;28;20094;-73
2022/09/13 00:07:48;;;;;;;7.97;4.10;;;;;;;16.56;100.00;101035.47;5285752;28;20027;-73
2022/09/13 00:10:19;;;;;;;9.85;4.63;;;;;;;16.54;100.00;101030.28;5267590;28;20118;-73
2022/09/13 00:12:50;;;;;;;7.20;4.57;;;;;;;16.52;100.00;101028.81;5285389;28;20024;-72
2022/09/13 00:15:21;;;;;;;7.38;4.45;;;;;;;16.50;100.00;101028.16;5284750;28;20542;-73
2022/09/13 00:17:51;;;;;;;7.72;4.85;;;;;;;16.47;100.00;101024.00;5285766;28;20027;-73
2022/09/13 00:20:22;;;;;;;6.80;4.70;;;;;;;16.43;100.00;101024.59;5285308;28;20047;-73
2022/09/13 00:22:52;;;;;;;11.57;4.68;;;;;;;16.40;100.00;101011.44;5286038;28;20039;-72
2022/09/13 00:25:23;;;;;;;8.27;4.53;;;;;;;16.39;100.00;101012.50;5285120;28;20023;-72
2022/09/13 00:27:53;;;;;;;7.82;4.68;;;;;;;16.37;100.00;101004.56;5285650;28;20023;-73
2022/09/13 00:30:24;;;;;;;7.13;4.75;;;;;;;16.36;100.00;101005.59;5285787;28;20477;-73
2022/09/13 00:32:55;;;;;;;9.20;4.63;;;;;;;16.37;100.00;100995.63;5278618;28;20496;-74
2022/09/13 00:35:25;;;;;;;7.30;3.85;;;;;;;16.40;100.00;101006.03;5276499;28;20031;-73
2022/09/13 00:37:58;;;;;;;8.65;4.30;;;;;;;16.44;100.00;101002.72;5285752;28;20500;-73
2022/09/13 00:40:29;;;;;;;8.43;4.57;;;;;;;16.50;100.00;100995.66;5285259;28;20023;-73
2022/09/13 00:43:00;;;;;;;7.75;4.15;;;;;;;16.55;100.00;100990.47;5285521;28;20081;-73
2022/09/13 00:45:30;;;;;;;8.55;4.97;;;;;;;16.59;100.00;100980.91;5284797;28;20430;-73
2022/09/13 00:48:06;;;;;;;11.20;5.55;;;;;;;16.64;100.00;100983.84;5285391;28;20397;-73
2022/09/13 00:50:41;;;;;;;12.82;5.45;;;;;;;16.68;100.00;100984.28;5271479;28;20024;-73
2022/09/13 00:53:17;;;;;;;6.75;4.90;;;;;;;16.71;100.00;100978.44;5285533;28;20020;-73
2022/09/13 00:55:51;;;;;;;9.10;5.00;;;;;;;16.72;100.00;100967.47;5284252;28;20016;-73
2022/09/13 00:58:26;;;;;;;8.20;5.35;;;;;;;16.71;100.00;100963.06;5285226;28;20190;-73
2022/09/13 01:00:58;;;;;;;8.68;5.25;;;;;;;16.71;100.00;100957.66;5275005;28;20024;-74
2022/09/13 01:03:32;;;;;;;6.50;4.75;;;;;;;16.69;100.00;100959.69;5278348;28;20031;-73
2022/09/13 01:06:09;;;;;;;14.73;5.25;;;;;;;16.69;100.00;100945.31;5258621;28;20084;-73
2022/09/13 01:08:43;;;;;;;10.65;5.20;;;;;;;16.69;100.00;100950.75;5285964;28;20511;-73
2022/09/13 01:11:49;;;;;;;8.43;4.20;;;;;;;16.67;100.00;100950.94;5285691;28;20106;-74
2022/09/13 01:14:32;;;;;;;13.55;5.07;;;;;;;16.66;100.00;100940.31;5284595;28;20046;-73
2022/09/13 01:17:03;;;;;;;7.68;4.20;;;;;;;16.64;100.00;100943.22;5289605;28;20030;-73
2022/09/13 01:19:34;;;;;;;5.60;4.13;;;;;;;16.64;100.00;100929.69;5289358;28;20015;-74
2022/09/13 01:22:23;;;;;;;6.68;4.68;;;;;;;16.64;100.00;100934.28;5289986;28;20389;-74
2022/09/13 01:25:22;;;;;;;5.80;3.90;;;;;;;16.63;100.00;100936.16;5267721;28;20493;-73
2022/09/13 01:28:30;;;;;;;6.88;4.55;;;;;;;16.67;100.00;100936.59;5274613;28;20070;-74
2022/09/13 01:31:08;;;;;;;6.63;4.05;;;;;;;16.66;100.00;100927.59;5275783;28;20024;-73
2022/09/13 01:33:52;;;;;;;6.75;4.35;;;;;;;16.66;100.00;100915.94;5289644;28;20047;-74
2022/09/13 01:36:48;;;;;;;8.82;4.38;;;;;;;16.71;100.00;100916.16;5288928;28;20687;-73
2022/09/13 01:39:27;;;;;;;;;;;;;;;16.75;100.00;100920.97;5289680;28;20126;-73
2022/09/13 01:42:28;;;;;;;7.93;4.88;;;;;;;16.79;100.00;100910.56;5289188;28;19904;-73
2022/09/13 01:45:22;;;;;;;7.07;4.60;;;;;;;16.80;100.00;100910.38;5275396;28;20024;-74
2022/09/13 01:48:02;;;;;;;7.05;4.20;;;;;;;16.82;100.00;100916.44;5278616;28;20745;-74
2022/09/13 01:51:00;;;;;;;6.80;4.32;;;;;;;16.83;100.00;100923.50;5289017;28;20031;-74
2022/09/13 01:53:35;;;;;;;6.53;4.32;;;;;;;16.77;100.00;100926.22;5285676;28;20062;-74
2022/09/13 01:56:19;;;;;;;9.57;4.60;;;;;;;16.73;100.00;100933.91;5279349;28;20034;-73
2022/09/13 01:59:13;;;;;;;7.03;5.07;;;;;;;16.71;100.00;100929.69;5294204;28;20109;-73
2022/09/13 02:02:04;;;;;;;5.60;4.35;;;;;;;16.71;100.00;100927.84;5288958;28;20028;-74
2022/09/13 02:04:42;;;;;;;7.95;4.10;;;;;;;16.68;100.00;100927.41;5274288;28;20116;-73
2022/09/13 02:07:18;;;;;;;7.00;4.32;;;;;;;16.65;100.00;100936.75;5289274;28;20027;-73
2022/09/13 02:09:57;;;;;;;7.63;4.80;;;;;;;16.68;100.00;100940.94;5275217;28;20028;-73
2022/09/13 02:12:30;;;;;;;7.20;4.53;;;;;;;16.74;100.00;100948.28;5289257;28;20384;-74
2022/09/13 02:15:05;;;;;;;9.15;4.53;;;;;;;16.71;100.00;100948.66;5287684;28;20073;-73
2022/09/13 02:17:40;;;;;;;5.78;4.20;;;;;;;16.66;100.00;100945.72;5289211;28;20034;-74
2022/09/13 02:20:18;;;;;;;6.73;4.57;;;;;;;16.67;100.00;100945.53;5288986;28;20495;-74
2022/09/13 02:22:55;;;;;;;7.13;3.92;;;;;;;16.68;100.00;100959.91;5271273;28;20027;-74
2022/09/13 02:25:29;;;;;;;11.48;6.00;;;;;;;16.64;100.00;100959.47;5278079;28;20029;-76
2022/09/13 02:28:04;;;;;;;9.85;4.35;;;;;;;16.64;100.00;100958.66;5288196;28;20024;-75
2022/09/13 02:30:39;;;;;;;7.35;4.20;;;;;;;16.61;100.00;100956.31;5274588;28;20035;-75
2022/09/13 02:33:16;;;;;;;7.40;4.20;;;;;;;16.58;100.00;100963.00;5280003;28;20393;-75
2022/09/13 02:35:52;;;;;;;14.02;5.05;;;;;;;16.52;100.00;100961.13;5282946;28;20028;-75
2022/09/13 02:38:29;;;;;;;9.38;4.70;;;;;;;16.46;100.00;100962.72;5287665;28;20028;-75
2022/09/13 02:41:18;;;;;;;7.72;4.20;;;;;;;16.40;100.00;100958.13;5281592;28;20031;-75
2022/09/13 02:43:53;;;;;;;8.50;4.60;;;;;;;16.34;100.00;100967.06;5280778;28;20034;-75
2022/09/13 02:46:35;;;;;;;11.65;4.68;;;;;;;16.32;100.00;100966.44;5277038;28;20296;-75
2022/09/13 02:49:39;;;;;;;7.65;4.70;;;;;;;16.31;100.00;100962.03;5280302;28;20082;-75
2022/09/13 02:52:25;;;;;;;8.05;4.80;;;;;;;16.31;100.00;100970.16;5285163;28;20511;-73
2022/09/13 02:55:19;;;;;;;7.07;4.47;;;;;;;16.29;100.00;100977.66;5287060;28;20405;-73
2022/09/13 02:58:05;;;;;;;9.15;4.38;;;;;;;16.25;100.00;100985.34;5287712;28;20050;-73
2022/09/13 03:00:36;;;;;;;11.82;4.80;;;;;;;16.22;100.00;100984.91;5269151;28;20532;-73
2022/09/13 03:03:11;;;;;;;10.73;4.80;;;;;;;16.18;100.00;100979.06;5286212;28;20103;-73
2022/09/13 03:05:42;;;;;;;8.50;4.90;;;;;;;16.15;100.00;100990.28;5275363;28;20030;-73
2022/09/13 03:08:15;;;;;;;7.85;4.90;;;;;;;16.13;100.00;100989.66;5287444;28;20280;-73
2022/09/13 03:11:24;;;;;;;12.85;4.85;;;;;;;16.09;100.00;100996.50;5287514;28;20423;-73
2022/09/13 03:14:29;;;;;;;8.43;4.38;;;;;;;16.05;100.00;100993.34;5276672;28;20465;-73
2022/09/13 03:17:25;;;;;;;9.90;4.13;;;;;;;16.03;100.00;100997.28;5277137;28;20398;-74
2022/09/13 03:20:05;;;;;;;8.00;4.55;;;;;;;15.99;100.00;100991.44;5286843;28;20110;-73
2022/09/13 03:23:05;;;;;;;7.55;4.70;;;;;;;15.98;100.00;100994.34;5287190;28;20027;-73
2022/09/13 03:25:54;;;;;;;9.77;4.60;;;;;;;16.00;100.00;100992.25;5286054;28;20031;-73
2022/09/13 03:28:36;;;;;;;11.00;4.40;;;;;;;15.99;100.00;100987.91;5275645;28;20030;-73
2022/09/13 03:31:16;;;;;;;11.05;4.72;;;;;;;15.98;100.00;100983.53;5286915;28;20031;-73
2022/09/13 03:34:20;;;;;;;7.22;4.25;;;;;;;16.00;100.00;100982.28;5287069;28;20481;-73
2022/09/13 03:36:57;;;;;;;10.27;5.40;;;;;;;16.01;100.00;100980.41;5286912;28;20385;-74
2022/09/13 03:39:38;;;;;;;8.32;4.47;;;;;;;15.98;100.00;100976.22;5285838;28;20071;-73
2022/09/13 03:42:29;;;;;;;11.25;4.82;;;;;;;15.94;100.00;100972.25;5286728;28;20111;-73
2022/09/13 03:45:03;;;;;;;7.25;4.25;;;;;;;15.94;100.00;100974.13;5285933;28;20058;-72
2022/09/13 03:47:35;;;;;;;11.82;4.32;;;;;;;15.97;100.00;100973.75;5286372;28;20031;-73
2022/09/13 03:50:07;;;;;;;7.50;4.50;;;;;;;16.00;100.00;100970.63;5285990;28;20045;-74
2022/09/13 03:52:38;;;;;;;7.65;4.43;;;;;;;16.01;100.00;100977.69;5286136;28;20081;-73
2022/09/13 03:55:08;;;;;;;7.85;4.68;;;;;;;16.00;100.00;100973.31;5285130;28;20059;-73
2022/09/13 03:57:39;;;;;;;6.15;4.13;;;;;;;16.00;100.00;100981.44;5286394;28;20022;-72
2022/09/13 04:00:12;;;;;;;8.02;4.63;;;;;;;15.98;100.00;100978.94;5286399;28;20027;-73
2022/09/13 04:02:43;;;;;;;10.15;4.60;;;;;;;15.96;100.00;100980.16;5286330;28;20050;-73
2022/09/13 04:05:13;;;;;;;8.98;4.78;;;;;;;15.96;100.00;100974.75;5284747;28;20297;-73
2022/09/13 04:07:44;;;;;;;7.05;4.15;;;;;;;15.96;100.00;100969.34;5285775;28;20036;-72
2022/09/13 04:10:15;;;;;;;9.38;4.13;;;;;;;15.96;100.00;100963.94;5285889;28;20106;-73
2022/09/13 04:12:45;;;;;;;10.40;4.75;;;;;;;15.95;100.00;100968.50;5286192;28;20031;-72
2022/09/13 04:15:15;;;;;;;6.38;3.92;;;;;;;15.93;100.00;100969.75;5283806;28;20031;-73
2022/09/13 04:17:47;;;;;;;6.93;4.45;;;;;;;15.93;100.00;100964.34;5285347;28;20055;-73
2022/09/13 04:20:17;;;;;;;6.82;5.00;;;;;;;15.94;100.00;100956.03;5285593;28;20058;-72
2022/09/13 04:23:03;;;;;;;9.07;3.97;;;;;;;15.95;100.00;100959.56;5285925;28;20067;-73
2022/09/13 04:25:37;;;;;;;6.60;4.22;;;;;;;15.97;100.00;100949.38;5284925;28;20019;-73
2022/09/13 04:28:08;;;;;;;11.27;4.60;;;;;;;16.00;100.00;100954.38;5267268;28;20059;-73
2022/09/13 04:30:43;;;;;;;8.88;4.32;;;;;;;16.04;100.00;100958.38;5285568;28;20451;-73
2022/09/13 04:33:16;;;;;;;9.35;4.57;;;;;;;16.05;100.00;100958.16;5286469;28;20036;-74
2022/09/13 04:35:46;;;;;;;7.10;4.25;;;;;;;16.09;100.00;100963.19;5285658;28;20024;-72
2022/09/13 04:38:17;;;;;;;9.43;4.45;;;;;;;16.12;100.00;100963.63;5289318;28;20477;-72
2022/09/13 04:40:53;;;;;;;7.75;4.25;;;;;;;16.13;100.00;100951.75;5274400;28;20055;-72
2022/09/13 04:43:23;;;;;;;8.73;4.10;;;;;;;16.15;100.00;100957.78;5292924;28;20031;-72
2022/09/13 04:45:54;;;;;;;7.78;4.07;;;;;;;16.14;100.00;100964.25;5285593;28;20467;-72
2022/09/13 04:48:24;;;;;;;7.40;4.68;;;;;;;16.14;100.00;100976.94;5283818;28;20023;-73
2022/09/13 04:51:03;;;;;;;8.85;4.65;;;;;;;16.12;100.00;100969.03;5289428;28;20544;-73
2022/09/13 04:53:34;;;;;;;11.43;4.95;;;;;;;16.11;100.00;100967.34;5290132;28;20115;-72
2022/09/13 04:56:06;;;;;;;6.43;4.15;;;;;;;16.07;100.00;100974.22;5289027;28;20027;-73
2022/09/13 04:58:37;;;;;;;9.95;4.88;;;;;;;16.04;100.00;100977.31;5289648;28;20472;-73
2022/09/13 05:01:08;;;;;;;6.57;4.43;;;;;;;16.03;100.00;100981.06;5289863;28;20038;-73
2022/09/13 05:03:39;;;;;;;10.02;4.93;;;;;;;16.03;100.00;100973.78;5289248;28;20484;-73
2022/09/13 05:06:13;;;;;;;9.52;5.00;;;;;;;16.04;100.00;100975.44;5289141;28;20069;-73
2022/09/13 05:08:51;;;;;;;13.57;4.90;;;;;;;16.07;100.00;100986.91;5276708;28;20043;-73
2022/09/13 05:11:24;;;;;;;11.98;4.88;;;;;;;16.09;100.00;100984.84;5289769;28;20370;-72
2022/09/13 05:13:57;;;;;;;11.73;4.55;;;;;;;16.12;100.00;100993.41;5288815;28;20027;-73
2022/09/13 05:16:31;;;;;;;10.25;4.55;;;;;;;16.15;100.00;100979.44;5288453;28;20023;-73
2022/09/13 05:19:02;;;;;;;16.50;4.68;;;;;;;16.13;100.00;100976.13;5289195;28;20076;-73
2022/09/13 05:21:32;;;;;;;10.50;4.50;;;;;;;16.13;100.00;100986.94;5289352;28;20020;-74
2022/09/13 05:24:03;;;;;;;14.90;4.63;;;;;;;16.18;100.00;100992.59;5275429;28;20063;-73
2022/09/13 05:26:34;;;;;;;8.90;4.63;;;;;;;16.18;100.00;100989.88;5288411;28;20362;-74
2022/09/13 05:29:05;;;;;;;14.93;4.90;;;;;;;16.15;100.00;100987.56;5289091;28;20034;-73
2022/09/13 05:31:39;;;;;;;10.50;4.50;;;;;;;16.14;100.00;100982.38;5289292;28;20023;-72
2022/09/13 05:34:13;;;;;;;9.07;4.63;;;;;;;16.19;100.00;100983.44;5287920;28;20110;-72
2022/09/13 05:36:43;;;;;;;8.48;4.70;;;;;;;16.23;100.00;100987.41;5288867;28;20020;-71
2022/09/13 05:39:16;;;;;;;15.23;5.63;;;;;;;16.24;100.00;100986.38;5288533;28;20385;-71
2022/09/13 05:41:47;;;;;;;9.23;4.65;;;;;;;16.27;100.00;100988.69;5288922;28;20434;-71
2022/09/13 05:44:18;;;;;;;6.97;4.38;;;;;;;16.34;100.00;100998.72;5274066;28;20391;-71
2022/09/13 05:46:48;;;;;;;9.40;4.82;;;;;;;16.36;100.00;101002.88;5275499;28;20089;-71
2022/09/13 05:49:19;;;;;;;10.00;4.68;;;;;;;16.35;100.00;101012.03;5279729;28;20028;-71
2022/09/13 05:51:49;;;;;;;11.25;4.78;;;;;;;16.33;100.00;101008.72;5283715;28;20107;-71
2022/09/13 05:54:20;;;;;;;8.98;4.50;;;;;;;16.37;100.00;101020.00;5288233;28;20028;-71
2022/09/13 05:56:51;;;;;;;12.15;4.55;;;;;;;16.41;100.00;101015.81;5270645;28;20034;-71
2022/09/13 05:59:22;;;;;;;10.73;4.82;;;;;;;16.35;100.00;101017.47;5288812;28;20023;-70
2022/09/13 06:01:52;;;;;;;10.93;4.68;;;;;;;16.37;100.00;101010.00;5282619;28;20398;-71
2022/09/13 06:04:23;;;;;;;9.50;5.30;;;;;;;16.45;100.00;101022.50;5267046;28;20118;-71
2022/09/13 06:06:53;;;;;;;10.23;5.13;;;;;;;16.51;100.00;101014.41;5286763;28;20020;-71
2022/09/13 06:09:24;;;;;;;8.77;4.60;;;;;;;16.54;100.00;101005.06;5257416;28;20032;-71
2022/09/13 06:11:55;;;;;;;14.63;5.00;;;;;;;16.59;100.00;100997.16;5288081;28;20054;-71
2022/09/13 06:14:25;;;;;;;8.45;4.53;;;;;;;16.59;100.00;100989.03;5287401;28;20490;-71
2022/09/13 06:16:56;;;;;;;11.90;5.22;;;;;;;16.62;100.00;100996.78;5288337;28;20035;-71
2022/09/13 06:19:27;;;;;;;19.75;5.30;;;;;;;16.65;100.00;100999.06;5267451;28;20369;-71
2022/09/13 06:21:57;;;;;;;11.38;4.78;;;;;;;16.71;100.00;101002.81;5267538;28;20055;-71
2022/09/13 06:24:28;;;;;;;9.25;4.63;;;;;;;16.78;100.00;101007.28;5283919;28;20051;-71
2022/09/13 06:26:58;;;;;;;8.85;4.38;;;;;;;16.87;100.00;101002.53;5287568;28;20024;-70
2022/09/13 06:29:29;;;;;;;11.95;5.43;;;;;;;16.96;100.00;100989.59;5271968;28;20213;-70
2022/09/13 06:32:02;;;;;;;10.68;5.28;;;;;;;17.05;100.00;100993.78;5285080;28;20066;-71
2022/09/13 06:34:32;;;;;;;13.00;5.57;;;;;;;17.14;100.00;101000.69;5266445;28;20027;-71
2022/09/13 06:37:03;;;;;;;10.07;3.97;;;;;;;17.28;100.00;100996.16;5285760;28;20491;-71
2022/09/13 06:39:34;;;;;;;7.47;4.65;;;;;;;17.39;100.00;100992.81;5284735;28;20439;-71
2022/09/13 06:42:05;;;;;;;9.02;4.55;;;;;;;17.48;100.00;100993.44;5283789;28;20023;-71
2022/09/13 06:44:35;;;;;;;9.32;4.97;;;;;;;17.52;100.00;100995.53;5263615;28;20024;-71
2022/09/13 06:47:05;;;;;;;13.43;5.07;;;;;;;17.60;100.00;101000.75;5280766;28;20433;-71
2022/09/13 06:49:36;;;;;;;10.23;4.90;;;;;;;17.69;100.00;100997.81;5274388;28;20498;-71
2022/09/13 06:52:07;;;;;;;8.30;4.68;;;;;;;17.76;100.00;100993.25;5282191;28;20308;-71
2022/09/13 06:54:38;;;;;;;6.10;4.10;;;;;;;17.83;100.00;100994.94;5284804;28;20065;-71
2022/09/13 06:57:08;;;;;;;6.28;4.38;;;;;;;17.94;100.00;100998.06;5278967;28;20473;-70
2022/09/13 06:59:39;;;;;;;12.27;4.55;;;;;;;18.03;100.00;100994.06;5276807;28;20125;-71
2022/09/13 07:02:10;;;;;;;11.02;4.93;;;;;;;18.11;100.00;101002.81;5270939;28;20019;-71
2022/09/13 07:04:40;;;;;;;9.02;4.70;;;;;;;18.21;100.00;100996.09;5251709;28;20034;-71
2022/09/13 07:07:11;;;;;;;11.02;4.35;;;;;;;18.33;100.00;100997.97;5277818;28;20055;-71
2022/09/13 07:09:42;;;;;;;10.10;4.75;;;;;;;18.47;100.00;100998.72;5281210;28;20031;-71
2022/09/13 07:12:12;;;;;;;10.13;4.78;;;;;;;18.66;100.00;100999.72;5273522;28;20023;-71
2022/09/13 07:14:43;;;;;;;13.95;5.05;;;;;;;18.85;100.00;100998.81;5278498;28;20058;-71
2022/09/13 07:17:13;;;;;;;16.40;5.03;;;;;;;19.07;100.00;100991.16;5284245;28;20023;-71
2022/09/13 07:19:44;;;;;;;6.82;4.40;;;;;;;19.33;100.00;100994.78;5284212;28;20107;-71
2022/09/13 07:22:14;;;;;;;9.43;4.43;;;;;;;19.52;100.00;100995.66;5284669;28;20055;-71
2022/09/13 07:24:45;;;;;;;8.95;4.18;;;;;;;19.69;100.00;100988.66;5283783;28;20032;-71
2022/09/13 07:27:15;;;;;;;10.85;3.90;;;;;;;19.91;100.00;100987.16;5270439;28;20024;-71
2022/09/13 07:29:46;;;;;;;11.63;4.53;;;;;;;20.12;100.00;100995.97;5284178;28;20365;-71
2022/09/13 07:32:16;;;;;;;10.35;4.68;;;;;;;20.32;100.00;100995.75;5284652;28;20426;-71
2022/09/13 07:34:47;;;;;;;13.73;3.95;;;;;;;20.58;100.00;100991.91;5283861;28;20031;-71
2022/09/13 07:37:18;;;;;;;11.00;4.30;;;;;;;20.78;100.00;100989.75;5284037;28;20028;-71
2022/09/13 07:39:48;;;;;;;10.65;4.07;;;;;;;20.88;100.00;100992.78;5272575;28;20020;-72
2022/09/13 07:42:19;;;;;;;9.40;4.03;;;;;;;20.93;100.00;100995.66;5263519;28;20027;-71
2022/09/13 07:44:49;;;;;;;7.20;4.95;;;;;;;20.92;100.00;100998.59;5283596;28;20034;-71
2022/09/13 07:47:19;;;;;;;11.80;4.72;;;;;;;20.92;100.00;100999.44;5284017;28;20028;-72
2022/09/13 07:49:50;;;;;;;7.38;4.28;;;;;;;20.93;100.00;101005.72;5283597;28;20053;-70
2022/09/13 07:52:20;;;;;;;9.38;4.80;;;;;;;20.95;100.00;101007.16;5269910;28;20496;-71
2022/09/13 07:54:51;;;;;;;14.50;5.45;;;;;;;20.91;100.00;101008.69;5283393;28;20031;-72
2022/09/13 07:57:21;;;;;;;13.48;5.50;;;;;;;20.90;100.00;101007.00;5283920;28;20106;-71
2022/09/13 07:59:51;;;;;;;12.73;5.13;;;;;;;20.94;100.00;101015.56;5283966;28;20031;-71
2022/09/13 08:02:22;;;;;;;11.52;5.60;;;;;;;21.03;100.00;101021.53;5284003;28;20130;-74
2022/09/13 08:04:52;;;;;;;13.55;5.30;;;;;;;21.04;100.00;101009.56;5282819;28;20074;-72
2022/09/13 08:07:23;;;;;;;14.82;6.28;;;;;;;21.10;100.00;101014.09;5283972;28;20133;-72
2022/09/13 08:09:55;;;;;;;9.63;5.43;;;;;;;21.20;100.00;101017.09;5278897;28;20028;-71
2022/09/13 08:12:26;;;;;;;12.77;5.40;;;;;;;21.46;100.00;101008.53;5263107;28;20459;-72
2022/09/13 08:14:56;;;;;;;16.13;6.22;;;;;;;21.68;100.00;101014.25;5281179;28;21475;-71
2022/09/13 08:17:28;;;;;;;10.70;4.93;;;;;;;22.11;100.00;101013.13;5283129;28;20473;-71
2022/09/13 08:19:58;;;;;;;12.52;6.45;;;;;;;23.00;100.00;101018.28;5275733;28;20020;-71
2022/09/13 08:22:28;;;;;;;11.30;7.30;;;;;;;23.59;100.00;101012.47;5277131;28;20028;-72
2022/09/13 08:24:59;;;;;;;13.80;7.63;;;;;;;23.99;100.00;101024.09;5283547;28;20024;-72
2022/09/13 08:27:29;;;;;;;15.48;7.25;;;;;;;24.38;100.00;101026.88;5283102;28;20074;-71
2022/09/13 08:30:00;;;;;;;16.20;8.35;;;;;;;24.77;100.00;101024.94;5282347;28;20024;-72
2022/09/13 08:32:30;;;;;;;14.77;7.85;;;;;;;25.31;100.00;101026.91;5283548;28;20030;-71
2022/09/13 08:35:01;;;;;;;12.93;6.90;;;;;;;25.93;100.00;101018.09;5282724;28;20299;-72
2022/09/13 08:37:33;;;;;;;15.07;7.88;;;;;;;26.13;100.00;101024.84;5283196;28;20027;-71
2022/09/13 08:40:04;;;;;;;15.13;8.25;;;;;;;26.38;100.00;101015.91;5252458;28;20035;-72
2022/09/13 08:42:50;;;;;;;12.05;7.18;;;;;;;26.60;100.00;101009.13;5263692;28;20477;-72
2022/09/13 08:45:22;;;;;;;14.73;7.97;;;;;;;27.15;100.00;101011.53;5282488;28;20019;-72
2022/09/13 08:48:00;;;;;;;13.35;6.95;;;;;;;26.99;100.00;101016.16;5282704;28;20022;-72
2022/09/13 08:50:35;;;;;;;16.42;6.68;;;;;;;26.91;100.00;101012.03;5264077;28;20369;-72
2022/09/13 08:53:11;;;;;;;;;;;;;;;26.99;100.00;101016.16;5275452;28;20024;-72
2022/09/13 08:55:52;;;;;;;14.52;7.30;;;;;;;26.99;100.00;101011.47;5268975;28;20300;-72
2022/09/13 08:59:02;;;;;;;10.82;6.32;;;;;;;27.18;100.00;101008.25;5283690;28;20032;-72
2022/09/13 09:01:56;;;;;;;19.38;7.25;;;;;;;27.19;100.00;101004.38;5283287;28;20051;-72
2022/09/13 09:04:27;;;;;;;13.32;6.00;;;;;;;27.20;100.00;101006.84;5282869;28;20532;-72
2022/09/13 09:07:14;;;;;;;10.63;6.40;;;;;;;27.44;100.00;101003.59;5283428;28;20195;-72
2022/09/13 09:09:52;;;;;;;14.85;7.25;;;;;;;27.78;100.00;101001.97;5282842;28;20050;-72
2022/09/13 09:12:41;;;;;;;14.07;7.18;;;;;;;27.73;100.00;101004.72;5272904;28;20027;-72
2022/09/13 09:15:14;;;;;;;17.58;6.78;;;;;;;27.75;100.00;101002.50;5280870;28;20060;-72
2022/09/13 09:18:12;;;;;;;20.08;8.10;;;;;;;27.50;100.00;101002.47;5283162;28;20469;-72
2022/09/13 09:20:46;;;;;;;16.65;7.47;;;;;;;27.58;100.00;100991.75;5283288;28;20053;-72
2022/09/13 09:23:18;;;;;;;16.23;8.60;;;;;;;27.08;100.00;100993.34;5270449;28;20089;-72
2022/09/13 09:25:55;;;;;;;18.52;7.53;;;;;;;26.61;100.00;100996.25;5283312;28;20473;-72
2022/09/13 09:28:30;;;;;;;11.95;7.22;;;;;;;26.38;100.00;100991.16;5265048;28;20035;-72
2022/09/13 09:31:23;;;;;;;12.70;6.30;;;;;;;26.42;100.00;100990.38;5269152;28;20477;-72
2022/09/13 09:34:01;;;;;;;15.20;7.05;;;;;;;26.65;100.00;100993.75;5282134;28;20212;-72
2022/09/13 09:36:39;;;;;;;17.27;6.80;;;;;;;27.06;100.00;100995.53;5284346;28;20024;-72
2022/09/13 09:39:12;;;;;;;11.00;6.05;;;;;;;27.38;100.00;100991.75;5282387;28;20084;-72
2022/09/13 09:41:44;;;;;;;14.65;6.47;;;;;;;27.29;100.00;100985.94;5279473;28;20027;-72
2022/09/13 09:44:19;;;;;;;8.50;5.68;;;;;;;26.78;100.00;100985.00;5261757;28;20062;-72
2022/09/13 09:46:56;;;;;;;12.52;6.22;;;;;;;26.85;100.00;100977.31;5280283;28;20020;-73
2022/09/13 09:52:55;;;;;;;11.23;6.45;;;;;;;27.09;100.00;100966.66;5286808;28;20397;-72
2022/09/13 09:55:44;;;;;;;9.95;5.45;;;;;;;27.49;100.00;100959.50;5285272;28;20050;-72
2022/09/13 09:58:15;;;;;;;11.65;6.47;;;;;;;27.49;100.00;100968.59;5286236;28;20027;-72
2022/09/13 10:01:05;;;;;;;11.55;5.18;;;;;;;27.73;100.00;100966.13;5286370;28;20024;-72
2022/09/13 10:03:36;;;;;;;11.70;5.28;;;;;;;27.94;100.00;100964.16;5286404;28;20097;-72
2022/09/13 10:06:27;;;;;;;9.13;4.90;;;;;;;27.90;100.00;100954.78;5273123;28;20032;-72
2022/09/13 10:09:01;;;;;;;10.80;5.18;;;;;;;28.04;100.00;100961.38;5265150;28;20023;-72
2022/09/13 10:12:01;;;;;;;12.13;4.90;;;;;;;28.07;100.00;100948.97;5283653;28;20031;-72
2022/09/13 10:14:57;;;;;;;6.85;3.92;;;;;;;28.09;95.10;100952.25;5285150;28;20130;-72
2022/09/13 10:17:28;;;;;;;9.27;4.20;;;;;;;28.26;97.85;100947.22;5285993;28;20051;-72
2022/09/13 10:20:02;;;;;;;6.55;3.97;;;;;;;28.03;100.00;100942.34;5286264;28;20023;-72
2022/09/13 10:22:33;;;;;;;8.88;4.70;;;;;;;27.77;97.01;100936.09;5271878;28;20024;-73
2022/09/13 10:25:21;;;;;;;12.80;4.95;;;;;;;27.44;100.00;100937.47;5285270;28;20073;-72
2022/09/13 10:27:56;;;;;;;11.55;5.28;;;;;;;27.22;100.00;100932.25;5285684;28;20078;-72
2022/09/13 10:30:48;;;;;;;7.38;4.35;;;;;;;27.27;100.00;100935.00;5271767;28;20028;-72
2022/09/13 10:33:27;;;;;;;6.97;4.25;;;;;;;27.23;100.00;100926.47;5275241;28;20065;-72
2022/09/13 10:36:04;;;;;;;9.02;3.60;;;;;;;27.11;100.00;100917.66;5283751;28;20043;-72
2022/09/13 10:38:37;;;;;;;9.35;4.05;;;;;;;26.96;100.00;100929.44;5271838;28;20103;-73
2022/09/13 10:41:19;;;;;;;10.60;4.40;;;;;;;27.15;100.00;100921.50;5263971;28;20386;-72
2022/09/13 10:43:57;;;;;;;8.38;3.90;;;;;;;27.17;100.00;100910.22;5281732;28;20023;-72
2022/09/13 10:46:31;;;;;;;9.35;3.40;;;;;;;27.25;100.00;100915.16;5255771;28;20027;-72
2022/09/13 10:49:02;;;;;;;8.40;3.58;;;;;;;27.34;100.00;100913.50;5277365;28;20064;-73
2022/09/13 10:51:36;;;;;;;5.95;3.00;;;;;;;27.42;100.00;100910.22;5277055;28;20024;-72
2022/09/13 10:54:22;;;;;;;8.15;3.47;;;;;;;27.37;100.00;100918.47;5285059;28;20508;-72
2022/09/13 10:56:53;;;;;;;6.00;3.80;;;;;;;27.25;100.00;100915.97;5285584;28;20111;-72
2022/09/13 10:59:28;;;;;;;8.20;3.58;;;;;;;27.27;100.00;100924.00;5284804;28;20102;-72
2022/09/13 11:02:31;;;;;;;5.72;3.40;;;;;;;27.27;100.00;100922.06;5279532;28;20020;-73
2022/09/13 11:05:36;;;;;;;7.15;3.13;;;;;;;27.08;100.00;100930.03;5281674;28;20118;-72
2022/09/13 11:08:30;;;;;;;10.73;3.38;;;;;;;27.18;100.00;100942.16;5284558;28;20504;-72
2022/09/13 11:11:07;;;;;;;11.73;3.10;;;;;;;27.09;100.00;100939.13;5272562;28;20419;-72
2022/09/13 11:14:02;;;;;;;8.65;4.75;;;;;;;27.14;100.00;100941.06;5272664;28;20373;-72
2022/09/13 11:16:47;;;;;;;8.98;4.15;;;;;;;27.29;100.00;100949.31;5265695;28;20187;-73
2022/09/13 11:19:45;;;;;;;7.53;3.65;;;;;;;27.44;100.00;100946.56;5265979;28;20030;-72
2022/09/13 11:22:30;;;;;;;9.82;3.42;;;;;;;27.75;100.00;100943.78;5272026;28;20065;-73
2022/09/13 11:25:01;;;;;;;;;;;;;;;27.96;99.58;100942.63;5272472;28;20031;-73
2022/09/13 11:27:56;;;;;;;6.00;3.15;;;;;;;28.26;95.51;100946.41;5285055;28;19914;-72
2022/09/13 11:30:34;;;;;;;10.65;3.10;;;;;;;28.21;97.46;100938.13;5283823;28;20027;-73
2022/09/13 11:33:42;;;;;;;5.22;3.17;;;;;;;28.20;92.58;100942.84;5284729;28;20186;-73
2022/09/13 11:36:23;;;;;;;11.73;3.75;;;;;;;28.27;97.99;100943.38;5264562;28;20450;-72
2022/09/13 11:39:17;;;;;;;9.48;3.10;;;;;;;28.48;97.49;100952.41;5284413;28;20037;-72
2022/09/13 11:42:14;;;;;;;4.80;3.05;;;;;;;28.36;92.15;100947.22;5266304;28;20027;-72
2022/09/13 11:44:59;;;;;;;4.47;3.33;;;;;;;27.90;93.42;100935.50;5274292;28;20481;-72
2022/09/13 11:47:51;;;;;;;7.25;3.85;;;;;;;27.86;95.67;100923.38;5284203;28;20030;-72
2022/09/13 11:50:32;;;;;;;11.10;3.67;;;;;;;28.00;96.83;100927.19;5270010;28;20096;-73
2022/09/13 11:53:30;;;;;;;5.70;3.28;;;;;;;28.49;100.00;100922.88;5284590;28;20035;-73
2022/09/13 11:56:07;;;;;;;5.60;2.97;;;;;;;29.34;89.05;100925.34;5283597;28;20474;-73
2022/09/13 11:58:46;;;;;;;5.50;3.10;;;;;;;29.50;79.63;100921.31;5258763;28;20547;-73
2022/09/13 12:01:25;;;;;;;5.80;3.90;;;;;;;29.13;88.33;100925.53;5261900;28;20051;-73